createdAt,value
2018-04-06T00:00:07.550Z,0
2018-04-06T00:01:09.150Z,0
2018-04-06T00:02:10.975Z,0
2018-04-06T00:03:12.580Z,0
2018-04-06T00:04:14.388Z,0
2018-04-06T00:05:16.143Z,0
2018-04-06T00:06:17.752Z,0
2018-04-06T00:07:19.951Z,0
2018-04-06T00:08:21.611Z,0
2018-04-06T00:09:23.437Z,0
2018-04-06T00:10:24.926Z,0
2018-04-06T00:11:27.924Z,0
2018-04-06T00:12:29.902Z,0
2018-04-06T00:13:32.215Z,0
2018-04-06T00:14:34.149Z,0
2018-04-06T00:15:35.750Z,0
2018-04-06T00:16:37.824Z,0
2018-04-06T00:17:39.960Z,0
2018-04-06T00:18:41.834Z,0
2018-04-06T00:19:43.654Z,0
2018-04-06T00:20:45.391Z,0
2018-04-06T00:21:47.286Z,0
2018-04-06T00:22:49.308Z,0
2018-04-06T00:23:51.021Z,0
2018-04-06T00:24:52.928Z,0
2018-04-06T00:25:54.544Z,0
2018-04-06T00:26:56.819Z,0
2018-04-06T00:27:58.432Z,0
2018-04-06T00:29:00.139Z,0
2018-04-06T00:30:01.910Z,0
2018-04-06T00:31:03.518Z,0
2018-04-06T00:32:05.121Z,0
2018-04-06T00:33:06.761Z,0
2018-04-06T00:34:08.684Z,0
2018-04-06T00:35:10.307Z,0
2018-04-06T00:36:11.908Z,0
2018-04-06T00:37:13.512Z,0
2018-04-06T00:38:15.119Z,0
2018-04-06T00:39:16.726Z,0
2018-04-06T00:40:18.332Z,0
2018-04-06T00:41:19.932Z,0
2018-04-06T00:42:22.331Z,0
2018-04-06T00:43:23.935Z,0
2018-04-06T00:44:25.577Z,0
2018-04-06T00:45:27.148Z,0
2018-04-06T00:46:28.754Z,0
2018-04-06T00:47:30.356Z,0
2018-04-06T00:48:31.959Z,0
2018-04-06T00:49:33.563Z,0
2018-04-06T00:50:35.170Z,0
2018-04-06T00:51:36.771Z,0
2018-04-06T00:52:38.376Z,0
2018-04-06T00:53:39.977Z,0
2018-04-06T00:54:41.585Z,0
2018-04-06T00:55:43.192Z,0
2018-04-06T00:56:44.796Z,0
2018-04-06T00:57:46.403Z,0
2018-04-06T00:58:48.003Z,0
2018-04-06T00:59:49.605Z,0
2018-04-06T01:00:51.213Z,0
2018-04-06T01:01:52.812Z,0
2018-04-06T01:02:54.415Z,0
2018-04-06T01:03:56.018Z,0
2018-04-06T01:04:57.625Z,0
2018-04-06T01:05:59.223Z,0
2018-04-06T01:07:00.831Z,0
2018-04-06T01:08:02.434Z,0
2018-04-06T01:09:04.037Z,0
2018-04-06T01:10:05.644Z,0
2018-04-06T01:11:07.255Z,0
2018-04-06T01:12:08.851Z,0
2018-04-06T01:13:10.458Z,0
2018-04-06T01:14:12.064Z,0
2018-04-06T01:15:13.664Z,0
2018-04-06T01:16:15.274Z,0
2018-04-06T01:17:16.875Z,0
2018-04-06T01:18:18.483Z,0
2018-04-06T01:19:20.087Z,0
2018-04-06T01:20:21.690Z,0
2018-04-06T01:21:23.292Z,0
2018-04-06T01:22:24.900Z,0
2018-04-06T01:23:26.504Z,0
2018-04-06T01:24:28.112Z,0
2018-04-06T01:25:29.721Z,0
2018-04-06T01:26:31.318Z,0
2018-04-06T01:27:32.928Z,0
2018-04-06T01:28:34.526Z,0
2018-04-06T01:29:36.135Z,0
2018-04-06T01:30:37.741Z,0
2018-04-06T01:31:39.341Z,0
2018-04-06T01:32:40.951Z,0
2018-04-06T01:33:42.550Z,0
2018-04-06T01:34:44.151Z,0
2018-04-06T01:35:45.753Z,0
2018-04-06T01:36:47.355Z,0
2018-04-06T01:37:48.957Z,0
2018-04-06T01:38:50.557Z,0
2018-04-06T01:39:52.166Z,0
2018-04-06T01:40:53.766Z,0
2018-04-06T01:41:55.373Z,0
2018-04-06T01:42:56.973Z,0
2018-04-06T01:43:58.579Z,0
2018-04-06T01:45:00.183Z,0
2018-04-06T01:46:01.786Z,0
2018-04-06T01:47:03.395Z,0
2018-04-06T01:48:04.993Z,0
2018-04-06T01:49:06.602Z,0
2018-04-06T01:50:08.204Z,0
2018-04-06T01:51:09.804Z,0
2018-04-06T01:52:11.410Z,0
2018-04-06T01:53:13.014Z,0
2018-04-06T01:54:14.627Z,0
2018-04-06T01:55:16.225Z,0
2018-04-06T01:56:17.830Z,0
2018-04-06T01:57:19.444Z,0
2018-04-06T01:58:21.042Z,0
2018-04-06T01:59:22.645Z,0
2018-04-06T02:00:24.251Z,0
2018-04-06T02:01:25.853Z,0
2018-04-06T02:02:27.455Z,0
2018-04-06T02:03:29.061Z,0
2018-04-06T02:04:30.662Z,0
2018-04-06T02:05:32.264Z,0
2018-04-06T02:06:33.874Z,0
2018-04-06T02:07:35.474Z,0
2018-04-06T02:08:37.080Z,0
2018-04-06T02:09:38.687Z,0
2018-04-06T02:10:40.284Z,0
2018-04-06T02:11:41.893Z,0
2018-04-06T02:12:43.493Z,0
2018-04-06T02:13:45.095Z,0
2018-04-06T02:14:46.705Z,0
2018-04-06T02:15:48.307Z,0
2018-04-06T02:16:49.911Z,0
2018-04-06T02:17:51.511Z,0
2018-04-06T02:18:53.113Z,0
2018-04-06T02:19:54.717Z,0
2018-04-06T02:20:56.319Z,0
2018-04-06T02:21:57.926Z,0
2018-04-06T02:22:59.535Z,0
2018-04-06T02:24:01.136Z,0
2018-04-06T02:25:02.739Z,0
2018-04-06T02:26:04.341Z,0
2018-04-06T02:27:05.948Z,0
2018-04-06T02:28:07.550Z,0
2018-04-06T02:29:09.158Z,0
2018-04-06T02:30:10.767Z,0
2018-04-06T02:31:12.366Z,0
2018-04-06T02:32:13.973Z,0
2018-04-06T02:33:15.574Z,0
2018-04-06T02:34:17.181Z,0
2018-04-06T02:35:18.787Z,0
2018-04-06T02:36:20.390Z,0
2018-04-06T02:37:22.001Z,0
2018-04-06T02:38:23.608Z,0
2018-04-06T02:39:25.264Z,0
2018-04-06T02:40:26.837Z,0
2018-04-06T02:41:28.416Z,0
2018-04-06T02:42:30.987Z,0
2018-04-06T02:43:32.593Z,0
2018-04-06T02:44:34.206Z,0
2018-04-06T02:45:35.811Z,0
2018-04-06T02:46:37.410Z,0
2018-04-06T02:47:39.014Z,0
2018-04-06T02:48:40.617Z,0
2018-04-06T02:49:42.218Z,0
2018-04-06T02:50:43.819Z,0
2018-04-06T02:51:45.424Z,0
2018-04-06T02:52:47.573Z,0
2018-04-06T02:53:49.181Z,0
2018-04-06T02:54:50.777Z,0
2018-04-06T02:55:52.394Z,0
2018-04-06T02:56:53.991Z,0
2018-04-06T02:57:55.595Z,0
2018-04-06T02:58:57.193Z,0
2018-04-06T02:59:58.802Z,0
2018-04-06T03:01:00.404Z,0
2018-04-06T03:02:02.009Z,0
2018-04-06T03:03:03.695Z,0
2018-04-06T03:04:05.317Z,0
2018-04-06T03:05:06.932Z,0
2018-04-06T03:06:08.538Z,0
2018-04-06T03:07:10.135Z,0
2018-04-06T03:08:11.739Z,0
2018-04-06T03:09:13.338Z,0
2018-04-06T03:10:14.952Z,0
2018-04-06T03:11:16.556Z,0
2018-04-06T03:12:18.166Z,0
2018-04-06T03:13:19.767Z,0
2018-04-06T03:14:21.374Z,0
2018-04-06T03:15:22.977Z,0
2018-04-06T03:16:24.576Z,0
2018-04-06T03:17:26.185Z,0
2018-04-06T03:18:27.786Z,0
2018-04-06T03:19:29.390Z,0
2018-04-06T03:20:30.999Z,0
2018-04-06T03:21:32.597Z,0
2018-04-06T03:22:34.200Z,0
2018-04-06T03:23:35.808Z,0
2018-04-06T03:24:37.412Z,0
2018-04-06T03:25:39.020Z,0
2018-04-06T03:26:40.621Z,0
2018-04-06T03:27:42.229Z,0
2018-04-06T03:28:43.828Z,0
2018-04-06T03:29:45.437Z,0
2018-04-06T03:30:47.036Z,0
2018-04-06T03:31:48.640Z,0
2018-04-06T03:32:50.247Z,0
2018-04-06T03:33:51.845Z,0
2018-04-06T03:34:53.456Z,0
2018-04-06T03:35:55.057Z,0
2018-04-06T03:36:56.657Z,0
2018-04-06T03:37:58.266Z,0
2018-04-06T03:38:59.868Z,0
2018-04-06T03:40:01.468Z,0
2018-04-06T03:41:03.070Z,0
2018-04-06T03:42:04.676Z,0
2018-04-06T03:43:06.281Z,0
2018-04-06T03:44:07.879Z,0
2018-04-06T03:45:09.485Z,0
2018-04-06T03:46:11.087Z,0
2018-04-06T03:47:12.688Z,0
2018-04-06T03:48:14.296Z,0
2018-04-06T03:49:15.902Z,0
2018-04-06T03:50:17.502Z,0
2018-04-06T03:51:19.105Z,0
2018-04-06T03:52:20.712Z,0
2018-04-06T03:53:22.335Z,0
2018-04-06T03:54:23.933Z,0
2018-04-06T03:55:25.542Z,0
2018-04-06T03:56:27.147Z,0
2018-04-06T03:57:28.751Z,0
2018-04-06T03:58:30.353Z,0
2018-04-06T03:59:31.955Z,0
2018-04-06T04:00:33.564Z,0
2018-04-06T04:01:35.164Z,0
2018-04-06T04:02:36.771Z,0
2018-04-06T04:03:38.379Z,0
2018-04-06T04:04:39.977Z,0
2018-04-06T04:05:41.586Z,0
2018-04-06T04:06:43.188Z,0
2018-04-06T04:07:44.787Z,0
2018-04-06T04:08:46.396Z,0
2018-04-06T04:09:48.001Z,0
2018-04-06T04:10:49.602Z,0
2018-04-06T04:11:51.246Z,0
2018-04-06T04:12:52.813Z,0
2018-04-06T04:13:54.419Z,0
2018-04-06T04:14:56.025Z,0
2018-04-06T04:15:57.626Z,0
2018-04-06T04:16:59.235Z,0
2018-04-06T04:18:00.842Z,0
2018-04-06T04:19:02.447Z,0
2018-04-06T04:20:04.043Z,0
2018-04-06T04:21:05.652Z,0
2018-04-06T04:22:07.252Z,0
2018-04-06T04:23:08.852Z,0
2018-04-06T04:24:10.461Z,0
2018-04-06T04:25:12.060Z,0
2018-04-06T04:26:13.668Z,0
2018-04-06T04:27:15.278Z,0
2018-04-06T04:28:16.877Z,0
2018-04-06T04:29:18.480Z,0
2018-04-06T04:30:20.092Z,0
2018-04-06T04:31:21.689Z,0
2018-04-06T04:32:23.297Z,0
2018-04-06T04:33:24.900Z,0
2018-04-06T04:34:26.519Z,0
2018-04-06T04:35:28.107Z,0
2018-04-06T04:36:29.718Z,0
2018-04-06T04:37:31.328Z,0
2018-04-06T04:38:32.925Z,0
2018-04-06T04:39:34.536Z,0
2018-04-06T04:40:36.133Z,0
2018-04-06T04:41:37.740Z,5
2018-04-06T04:42:39.346Z,5
2018-04-06T04:43:40.952Z,5
2018-04-06T04:44:42.558Z,5
2018-04-06T04:45:44.160Z,5
2018-04-06T04:46:45.832Z,11
2018-04-06T04:47:47.374Z,11
2018-04-06T04:48:48.986Z,11
2018-04-06T04:49:50.590Z,11
2018-04-06T04:50:52.190Z,16
2018-04-06T04:51:53.801Z,16
2018-04-06T04:52:55.406Z,16
2018-04-06T04:53:57.013Z,22
2018-04-06T04:54:58.622Z,22
2018-04-06T04:56:00.222Z,28
2018-04-06T04:57:01.832Z,28
2018-04-06T04:58:03.440Z,28
2018-04-06T04:59:05.875Z,33
2018-04-06T05:00:07.484Z,33
2018-04-06T05:01:09.095Z,39
2018-04-06T05:02:10.704Z,45
2018-04-06T05:03:12.306Z,45
2018-04-06T05:04:13.913Z,50
2018-04-06T05:05:15.519Z,50
2018-04-06T05:06:17.124Z,56
2018-04-06T05:07:18.738Z,61
2018-04-06T05:08:20.339Z,61
2018-04-06T05:09:21.948Z,67
2018-04-06T05:10:23.559Z,73
2018-04-06T05:11:25.158Z,73
2018-04-06T05:12:26.769Z,78
2018-04-06T05:13:28.373Z,84
2018-04-06T05:14:29.981Z,90
2018-04-06T05:15:31.593Z,95
2018-04-06T05:16:33.198Z,95
2018-04-06T05:17:34.838Z,101
2018-04-06T05:18:36.410Z,106
2018-04-06T05:19:38.015Z,112
2018-04-06T05:20:39.625Z,118
2018-04-06T05:21:41.235Z,123
2018-04-06T05:22:42.841Z,123
2018-04-06T05:23:44.452Z,129
2018-04-06T05:24:46.061Z,135
2018-04-06T05:25:47.665Z,140
2018-04-06T05:26:49.281Z,146
2018-04-06T05:27:50.889Z,151
2018-04-06T05:28:52.493Z,151
2018-04-06T05:29:54.112Z,157
2018-04-06T05:30:55.713Z,163
2018-04-06T05:31:57.329Z,168
2018-04-06T05:32:58.935Z,174
2018-04-06T05:34:00.542Z,174
2018-04-06T05:35:02.155Z,180
2018-04-06T05:36:03.764Z,185
2018-04-06T05:37:05.374Z,191
2018-04-06T05:38:07.914Z,191
2018-04-06T05:39:09.524Z,196
2018-04-06T05:40:11.128Z,202
2018-04-06T05:41:12.736Z,208
2018-04-06T05:42:14.359Z,213
2018-04-06T05:43:15.963Z,213
2018-04-06T05:44:17.573Z,219
2018-04-06T05:45:19.187Z,225
2018-04-06T05:46:20.792Z,225
2018-04-06T05:47:22.400Z,225
2018-04-06T05:48:24.009Z,225
2018-04-06T05:49:25.628Z,236
2018-04-06T05:50:27.233Z,241
2018-04-06T05:51:28.849Z,241
2018-04-06T05:52:30.456Z,247
2018-04-06T05:53:32.062Z,253
2018-04-06T05:54:33.674Z,253
2018-04-06T05:55:35.281Z,258
2018-04-06T05:56:36.894Z,264
2018-04-06T05:57:38.507Z,264
2018-04-06T05:58:40.114Z,270
2018-04-06T05:59:41.720Z,275
2018-04-06T06:00:44.112Z,275
2018-04-06T06:01:45.718Z,281
2018-04-06T06:02:47.339Z,286
2018-04-06T06:03:48.952Z,286
2018-04-06T06:04:50.560Z,292
2018-04-06T06:05:52.177Z,298
2018-04-06T06:06:53.783Z,303
2018-04-06T06:07:55.389Z,303
2018-04-06T06:08:57.001Z,309
2018-04-06T06:09:58.695Z,315
2018-04-06T06:11:00.313Z,320
2018-04-06T06:12:01.921Z,337
2018-04-06T06:13:03.529Z,675
2018-04-06T06:14:05.138Z,1468
2018-04-06T06:15:06.792Z,1591
2018-04-06T06:16:08.917Z,1305
2018-04-06T06:17:10.538Z,1400
2018-04-06T06:18:12.147Z,1530
2018-04-06T06:19:13.755Z,1479
2018-04-06T06:20:15.372Z,1648
2018-04-06T06:21:16.985Z,1653
2018-04-06T06:22:18.593Z,1507
2018-04-06T06:23:20.207Z,1608
2018-04-06T06:24:21.816Z,1771
2018-04-06T06:25:23.434Z,1614
2018-04-06T06:26:25.053Z,1479
2018-04-06T06:27:26.665Z,1586
2018-04-06T06:28:28.295Z,1867
2018-04-06T06:29:29.900Z,1676
2018-04-06T06:30:31.518Z,1468
2018-04-06T06:31:33.130Z,1681
2018-04-06T06:32:34.750Z,1693
2018-04-06T06:33:36.365Z,1805
2018-04-06T06:34:37.983Z,1732
2018-04-06T06:35:39.607Z,1563
2018-04-06T06:36:41.219Z,1603
2018-04-06T06:37:42.839Z,1653
2018-04-06T06:38:44.460Z,1501
2018-04-06T06:39:46.085Z,1642
2018-04-06T06:40:47.708Z,1878
2018-04-06T06:41:49.326Z,2064
2018-04-06T06:42:50.957Z,1861
2018-04-06T06:43:52.566Z,1867
2018-04-06T06:44:54.183Z,1867
2018-04-06T06:45:55.801Z,1839
2018-04-06T06:46:57.421Z,1918
2018-04-06T06:47:59.046Z,1890
2018-04-06T06:49:00.666Z,2030
2018-04-06T06:50:02.290Z,2216
2018-04-06T06:51:03.915Z,1985
2018-04-06T06:52:05.536Z,1918
2018-04-06T06:53:07.161Z,2216
2018-04-06T06:54:08.782Z,2126
2018-04-06T06:55:10.403Z,2058
2018-04-06T06:56:12.030Z,2418
2018-04-06T06:57:13.649Z,2446
2018-04-06T06:58:15.274Z,2233
2018-04-06T06:59:17.606Z,2317
2018-04-06T07:00:19.228Z,2486
2018-04-06T07:01:20.851Z,3026
2018-04-06T07:02:23.294Z,3240
2018-04-06T07:03:24.920Z,2908
2018-04-06T07:04:26.545Z,2818
2018-04-06T07:05:28.171Z,3060
2018-04-06T07:06:29.793Z,3616
2018-04-06T07:07:31.420Z,3892
2018-04-06T07:08:33.045Z,3763
2018-04-06T07:09:34.670Z,4410
2018-04-06T07:10:36.304Z,4612
2018-04-06T07:11:37.929Z,3701
2018-04-06T07:12:39.551Z,3127
2018-04-06T07:13:41.182Z,3009
2018-04-06T07:14:42.811Z,2773
2018-04-06T07:15:44.441Z,2480
2018-04-06T07:16:46.638Z,2323
2018-04-06T07:17:48.271Z,2221
2018-04-06T07:18:49.896Z,2238
2018-04-06T07:19:51.528Z,2255
2018-04-06T07:20:53.153Z,2278
2018-04-06T07:21:54.777Z,2266
2018-04-06T07:22:56.408Z,2289
2018-04-06T07:23:58.037Z,2289
2018-04-06T07:24:59.671Z,2362
2018-04-06T07:26:01.300Z,2351
2018-04-06T07:27:02.924Z,2368
2018-04-06T07:28:04.549Z,2418
2018-04-06T07:29:06.179Z,2418
2018-04-06T07:30:07.814Z,2475
2018-04-06T07:31:09.448Z,2497
2018-04-06T07:32:11.912Z,2486
2018-04-06T07:33:13.535Z,2542
2018-04-06T07:34:15.171Z,2553
2018-04-06T07:35:16.796Z,2536
2018-04-06T07:36:18.433Z,2593
2018-04-06T07:37:20.055Z,2671
2018-04-06T07:38:21.689Z,2745
2018-04-06T07:39:23.337Z,2739
2018-04-06T07:40:24.959Z,2722
2018-04-06T07:41:26.593Z,2705
2018-04-06T07:42:28.217Z,2700
2018-04-06T07:43:29.852Z,2716
2018-04-06T07:44:31.485Z,2728
2018-04-06T07:45:33.114Z,2784
2018-04-06T07:46:34.745Z,2210
2018-04-06T07:47:36.375Z,2233
2018-04-06T07:48:38.012Z,2160
2018-04-06T07:49:39.652Z,2205
2018-04-06T07:50:41.306Z,2255
2018-04-06T07:51:42.916Z,2261
2018-04-06T07:52:44.541Z,2261
2018-04-06T07:53:46.181Z,2221
2018-04-06T07:54:47.807Z,2868
2018-04-06T07:55:49.443Z,2846
2018-04-06T07:56:51.076Z,2846
2018-04-06T07:57:52.707Z,2857
2018-04-06T07:58:54.341Z,2829
2018-04-06T07:59:55.972Z,2784
2018-04-06T08:00:57.609Z,2835
2018-04-06T08:01:59.239Z,2784
2018-04-06T08:03:00.869Z,2761
2018-04-06T08:04:03.163Z,2716
2018-04-06T08:05:04.804Z,2688
2018-04-06T08:06:06.437Z,2694
2018-04-06T08:07:08.070Z,2677
2018-04-06T08:08:09.710Z,2688
2018-04-06T08:09:11.337Z,2683
2018-04-06T08:10:12.972Z,2694
2018-04-06T08:11:14.608Z,2677
2018-04-06T08:12:16.279Z,2666
2018-04-06T08:13:17.913Z,2683
2018-04-06T08:14:19.545Z,2733
2018-04-06T08:15:21.180Z,2902
2018-04-06T08:16:22.816Z,3656
2018-04-06T08:17:24.448Z,4545
2018-04-06T08:18:26.084Z,4865
2018-04-06T08:19:27.717Z,4860
2018-04-06T08:20:29.350Z,5113
2018-04-06T08:21:30.983Z,4995
2018-04-06T08:22:32.617Z,5113
2018-04-06T08:23:34.245Z,5315
2018-04-06T08:24:35.883Z,5073
2018-04-06T08:25:37.517Z,5051
2018-04-06T08:26:39.153Z,5056
2018-04-06T08:27:40.785Z,5304
2018-04-06T08:28:43.330Z,5782
2018-04-06T08:29:44.017Z,5602
2018-04-06T08:30:45.654Z,5647
2018-04-06T08:31:47.288Z,5698
2018-04-06T08:32:48.919Z,5608
2018-04-06T08:33:50.557Z,5883
2018-04-06T08:34:52.236Z,5911
2018-04-06T08:35:53.828Z,5743
2018-04-06T08:36:55.466Z,5805
2018-04-06T08:37:57.096Z,5692
2018-04-06T08:38:58.738Z,5681
2018-04-06T08:40:00.373Z,5602
2018-04-06T08:41:02.006Z,5793
2018-04-06T08:42:03.644Z,5900
2018-04-06T08:43:05.278Z,5810
2018-04-06T08:44:06.922Z,5923
2018-04-06T08:45:08.555Z,5675
2018-04-06T08:46:10.183Z,5771
2018-04-06T08:47:11.820Z,5698
2018-04-06T08:48:13.456Z,5467
2018-04-06T08:49:15.095Z,5636
2018-04-06T08:50:16.727Z,6001
2018-04-06T08:51:18.372Z,6215
2018-04-06T08:52:20.006Z,5754
2018-04-06T08:53:21.640Z,5338
2018-04-06T08:54:23.278Z,5090
2018-04-06T08:55:24.914Z,5265
2018-04-06T08:56:26.547Z,5608
2018-04-06T08:57:28.187Z,5861
2018-04-06T08:58:29.827Z,5681
2018-04-06T08:59:31.458Z,5861
2018-04-06T09:00:33.090Z,5810
2018-04-06T09:01:34.726Z,6148
2018-04-06T09:02:36.363Z,6277
2018-04-06T09:03:38.000Z,6288
2018-04-06T09:04:39.639Z,6294
2018-04-06T09:05:41.302Z,6153
2018-04-06T09:06:42.908Z,5636
2018-04-06T09:07:44.539Z,5000
2018-04-06T09:08:46.225Z,5546
2018-04-06T09:09:47.808Z,6041
2018-04-06T09:10:49.444Z,5411
2018-04-06T09:11:51.096Z,4893
2018-04-06T09:12:52.716Z,4629
2018-04-06T09:13:54.355Z,5090
2018-04-06T09:14:55.987Z,6007
2018-04-06T09:15:57.627Z,6474
2018-04-06T09:16:59.257Z,6316
2018-04-06T09:18:00.897Z,6226
2018-04-06T09:19:02.535Z,6316
2018-04-06T09:20:04.167Z,6176
2018-04-06T09:21:05.805Z,5956
2018-04-06T09:22:07.441Z,6052
2018-04-06T09:23:09.068Z,6125
2018-04-06T09:24:10.718Z,6069
2018-04-06T09:25:12.355Z,6300
2018-04-06T09:26:13.987Z,5799
2018-04-06T09:27:15.683Z,5782
2018-04-06T09:28:17.262Z,6316
2018-04-06T09:29:18.895Z,6480
2018-04-06T09:30:20.537Z,6142
2018-04-06T09:31:22.177Z,5203
2018-04-06T09:32:23.807Z,5135
2018-04-06T09:33:25.452Z,6001
2018-04-06T09:34:27.100Z,6266
2018-04-06T09:35:28.723Z,6322
2018-04-06T09:36:30.359Z,6170
2018-04-06T09:37:31.989Z,6058
2018-04-06T09:38:33.626Z,6165
2018-04-06T09:39:35.268Z,6052
2018-04-06T09:40:36.903Z,6226
2018-04-06T09:41:38.566Z,6367
2018-04-06T09:42:40.183Z,6451
2018-04-06T09:43:41.811Z,6688
2018-04-06T09:44:43.451Z,6671
2018-04-06T09:45:45.085Z,6423
2018-04-06T09:46:46.720Z,6440
2018-04-06T09:47:48.357Z,6558
2018-04-06T09:48:49.993Z,6491
2018-04-06T09:49:51.625Z,6536
2018-04-06T09:50:53.259Z,6688
2018-04-06T09:51:54.893Z,6727
2018-04-06T09:52:56.528Z,6463
2018-04-06T09:53:58.164Z,6457
2018-04-06T09:54:59.801Z,6525
2018-04-06T09:56:01.435Z,6637
2018-04-06T09:57:03.067Z,6806
2018-04-06T09:58:04.706Z,6755
2018-04-06T09:59:06.343Z,6733
2018-04-06T10:00:07.973Z,6705
2018-04-06T10:01:09.610Z,6716
2018-04-06T10:02:11.245Z,6626
2018-04-06T10:03:12.881Z,6570
2018-04-06T10:04:14.523Z,6626
2018-04-06T10:05:16.157Z,6547
2018-04-06T10:06:17.792Z,6541
2018-04-06T10:07:19.427Z,6564
2018-04-06T10:08:21.063Z,6654
2018-04-06T10:09:22.703Z,6851
2018-04-06T10:10:24.333Z,7020
2018-04-06T10:11:25.967Z,6935
2018-04-06T10:12:27.602Z,6946
2018-04-06T10:13:29.237Z,6834
2018-04-06T10:14:30.874Z,6778
2018-04-06T10:15:32.509Z,6721
2018-04-06T10:16:34.150Z,6733
2018-04-06T10:17:35.778Z,6603
2018-04-06T10:18:37.414Z,6716
2018-04-06T10:19:39.048Z,6817
2018-04-06T10:20:40.679Z,6969
2018-04-06T10:21:42.320Z,6941
2018-04-06T10:22:44.629Z,7008
2018-04-06T10:23:46.267Z,6935
2018-04-06T10:24:47.904Z,6766
2018-04-06T10:25:49.538Z,7070
2018-04-06T10:26:51.175Z,7155
2018-04-06T10:27:52.806Z,6806
2018-04-06T10:28:54.444Z,6721
2018-04-06T10:29:56.081Z,6986
2018-04-06T10:30:57.725Z,7177
2018-04-06T10:31:59.356Z,7183
2018-04-06T10:33:00.992Z,7149
2018-04-06T10:34:02.628Z,7143
2018-04-06T10:35:04.264Z,6873
2018-04-06T10:36:05.898Z,6558
2018-04-06T10:37:07.537Z,6896
2018-04-06T10:38:09.174Z,7177
2018-04-06T10:39:10.812Z,7267
2018-04-06T10:40:12.447Z,7250
2018-04-06T10:41:14.084Z,7171
2018-04-06T10:42:15.722Z,7498
2018-04-06T10:43:17.358Z,7301
2018-04-06T10:44:18.993Z,6828
2018-04-06T10:45:20.631Z,6806
2018-04-06T10:46:22.267Z,7065
2018-04-06T10:47:23.903Z,7143
2018-04-06T10:48:25.537Z,7380
2018-04-06T10:49:27.172Z,7391
2018-04-06T10:50:28.811Z,7239
2018-04-06T10:51:30.445Z,7306
2018-04-06T10:52:32.080Z,7464
2018-04-06T10:53:33.718Z,7385
2018-04-06T10:54:35.400Z,7464
2018-04-06T10:55:37.035Z,7436
2018-04-06T10:56:38.674Z,7402
2018-04-06T10:57:40.312Z,7419
2018-04-06T10:58:41.946Z,7323
2018-04-06T10:59:43.588Z,7093
2018-04-06T11:00:45.223Z,7166
2018-04-06T11:01:46.858Z,7396
2018-04-06T11:02:48.493Z,7160
2018-04-06T11:03:50.130Z,7031
2018-04-06T11:04:51.767Z,7171
2018-04-06T11:05:53.403Z,7132
2018-04-06T11:06:55.040Z,7171
2018-04-06T11:07:56.684Z,7430
2018-04-06T11:08:58.319Z,7610
2018-04-06T11:09:59.953Z,7396
2018-04-06T11:11:01.593Z,7081
2018-04-06T11:12:03.229Z,7081
2018-04-06T11:13:04.866Z,7301
2018-04-06T11:14:06.504Z,7323
2018-04-06T11:15:08.144Z,7132
2018-04-06T11:16:09.776Z,7453
2018-04-06T11:17:11.412Z,7582
2018-04-06T11:18:13.050Z,7245
2018-04-06T11:19:14.692Z,7160
2018-04-06T11:20:16.324Z,7346
2018-04-06T11:21:17.963Z,7205
2018-04-06T11:22:19.600Z,7138
2018-04-06T11:23:21.232Z,7149
2018-04-06T11:24:22.867Z,7155
2018-04-06T11:25:24.501Z,7087
2018-04-06T11:26:26.136Z,7104
2018-04-06T11:27:27.772Z,7143
2018-04-06T11:28:29.410Z,7149
2018-04-06T11:29:31.045Z,6975
2018-04-06T11:30:33.658Z,6935
2018-04-06T11:31:35.292Z,7076
2018-04-06T11:32:36.926Z,6840
2018-04-06T11:33:38.561Z,6676
2018-04-06T11:34:40.194Z,6840
2018-04-06T11:35:41.831Z,7155
2018-04-06T11:36:43.470Z,7143
2018-04-06T11:37:45.098Z,7155
2018-04-06T11:38:46.731Z,7284
2018-04-06T11:39:48.368Z,7216
2018-04-06T11:40:50.010Z,7048
2018-04-06T11:41:51.639Z,7003
2018-04-06T11:42:53.272Z,7149
2018-04-06T11:43:54.918Z,7121
2018-04-06T11:44:56.545Z,6997
2018-04-06T11:45:58.179Z,6918
2018-04-06T11:46:59.817Z,7053
2018-04-06T11:48:01.451Z,7155
2018-04-06T11:49:03.088Z,7160
2018-04-06T11:50:04.729Z,7166
2018-04-06T11:51:06.362Z,7160
2018-04-06T11:52:07.997Z,6958
2018-04-06T11:53:09.629Z,6446
2018-04-06T11:54:11.280Z,6817
2018-04-06T11:55:12.902Z,7177
2018-04-06T11:56:14.537Z,6885
2018-04-06T11:57:16.179Z,6463
2018-04-06T11:58:17.814Z,6001
2018-04-06T11:59:19.448Z,5771
2018-04-06T12:00:21.083Z,6631
2018-04-06T12:01:22.717Z,7155
2018-04-06T12:02:24.353Z,6817
2018-04-06T12:03:25.995Z,6952
2018-04-06T12:04:27.632Z,7003
2018-04-06T12:05:29.265Z,6750
2018-04-06T12:06:30.900Z,6654
2018-04-06T12:07:32.534Z,6592
2018-04-06T12:08:34.709Z,6738
2018-04-06T12:09:36.349Z,6598
2018-04-06T12:10:37.986Z,6671
2018-04-06T12:11:39.623Z,6738
2018-04-06T12:12:41.258Z,6733
2018-04-06T12:13:42.891Z,6755
2018-04-06T12:14:44.527Z,6845
2018-04-06T12:15:46.162Z,6834
2018-04-06T12:16:47.804Z,6603
2018-04-06T12:17:49.435Z,6688
2018-04-06T12:18:51.071Z,6744
2018-04-06T12:19:52.706Z,6766
2018-04-06T12:20:54.342Z,6609
2018-04-06T12:21:55.977Z,6721
2018-04-06T12:22:57.612Z,6395
2018-04-06T12:23:59.247Z,6159
2018-04-06T12:25:00.882Z,6103
2018-04-06T12:26:02.522Z,6159
2018-04-06T12:27:04.156Z,6193
2018-04-06T12:28:05.789Z,6165
2018-04-06T12:29:07.422Z,6131
2018-04-06T12:30:09.058Z,6041
2018-04-06T12:31:10.692Z,6204
2018-04-06T12:32:12.324Z,6356
2018-04-06T12:33:13.961Z,6530
2018-04-06T12:34:15.596Z,6474
2018-04-06T12:35:17.231Z,6418
2018-04-06T12:36:18.866Z,6451
2018-04-06T12:37:21.447Z,6586
2018-04-06T12:38:22.087Z,6660
2018-04-06T12:39:23.724Z,6553
2018-04-06T12:40:26.273Z,6367
2018-04-06T12:41:27.912Z,6114
2018-04-06T12:42:29.544Z,6210
2018-04-06T12:43:31.175Z,5956
2018-04-06T12:44:32.810Z,5782
2018-04-06T12:45:34.444Z,5799
2018-04-06T12:46:36.080Z,6001
2018-04-06T12:47:37.721Z,6069
2018-04-06T12:48:39.358Z,6356
2018-04-06T12:49:40.987Z,6345
2018-04-06T12:50:42.691Z,5720
2018-04-06T12:51:44.329Z,5731
2018-04-06T12:52:45.961Z,6153
2018-04-06T12:53:47.611Z,5962
2018-04-06T12:54:49.246Z,5613
2018-04-06T12:55:50.940Z,5771
2018-04-06T12:56:52.515Z,5715
2018-04-06T12:57:54.144Z,5906
2018-04-06T12:58:55.778Z,5703
2018-04-06T12:59:57.414Z,5580
2018-04-06T13:00:59.047Z,5726
2018-04-06T13:02:00.713Z,5748
2018-04-06T13:03:02.382Z,5838
2018-04-06T13:04:03.981Z,5985
2018-04-06T13:05:05.612Z,5748
2018-04-06T13:06:07.246Z,5670
2018-04-06T13:07:08.879Z,5979
2018-04-06T13:08:10.511Z,5782
2018-04-06T13:09:12.147Z,5675
2018-04-06T13:10:13.781Z,5653
2018-04-06T13:11:15.411Z,5872
2018-04-06T13:12:17.049Z,5945
2018-04-06T13:13:18.676Z,5754
2018-04-06T13:14:20.310Z,5540
2018-04-06T13:15:21.942Z,5810
2018-04-06T13:16:23.576Z,5816
2018-04-06T13:17:25.210Z,5664
2018-04-06T13:18:26.842Z,5377
2018-04-06T13:19:28.472Z,5422
2018-04-06T13:20:30.105Z,5506
2018-04-06T13:21:31.738Z,5388
2018-04-06T13:22:33.369Z,5360
2018-04-06T13:23:35.003Z,5135
2018-04-06T13:24:37.184Z,5355
2018-04-06T13:25:38.813Z,5259
2018-04-06T13:26:40.444Z,5321
2018-04-06T13:27:42.076Z,5220
2018-04-06T13:28:43.707Z,5135
2018-04-06T13:29:45.339Z,5242
2018-04-06T13:30:46.975Z,5006
2018-04-06T13:31:48.608Z,5107
2018-04-06T13:32:50.237Z,4983
2018-04-06T13:33:51.868Z,4989
2018-04-06T13:34:53.497Z,5191
2018-04-06T13:35:55.129Z,5107
2018-04-06T13:36:56.763Z,4950
2018-04-06T13:37:58.396Z,5000
2018-04-06T13:39:00.033Z,5130
2018-04-06T13:40:01.658Z,5265
2018-04-06T13:41:03.286Z,5101
2018-04-06T13:42:04.916Z,5000
2018-04-06T13:43:06.556Z,5023
2018-04-06T13:44:08.860Z,4882
2018-04-06T13:45:10.492Z,4860
2018-04-06T13:46:12.123Z,4786
2018-04-06T13:47:13.755Z,4539
2018-04-06T13:48:15.383Z,4685
2018-04-06T13:49:17.011Z,4843
2018-04-06T13:50:18.644Z,4725
2018-04-06T13:51:20.274Z,4663
2018-04-06T13:52:21.905Z,4494
2018-04-06T13:53:23.537Z,4612
2018-04-06T13:54:25.165Z,4488
2018-04-06T13:55:26.793Z,4736
2018-04-06T13:56:28.421Z,4668
2018-04-06T13:57:30.051Z,4449
2018-04-06T13:58:31.682Z,4494
2018-04-06T13:59:33.312Z,4471
2018-04-06T14:00:34.943Z,4359
2018-04-06T14:01:36.573Z,4466
2018-04-06T14:02:38.200Z,4488
2018-04-06T14:03:39.828Z,4471
2018-04-06T14:04:41.458Z,4545
2018-04-06T14:05:43.087Z,4387
2018-04-06T14:06:44.717Z,4218
2018-04-06T14:07:46.351Z,4381
2018-04-06T14:08:47.973Z,4438
2018-04-06T14:09:49.602Z,4460
2018-04-06T14:10:51.231Z,4303
2018-04-06T14:11:52.858Z,4100
2018-04-06T14:12:54.489Z,4016